Atlantic - Newfoundland: Past 24 Hour Conditions

 

Mary's Harbour

07:30 PM NDT 01 October 2014
This table is a summary of hourly weather conditions for the past 24 hours.
Date / Time
(NDT)
Wind(knots) Conditions Visibility(km) Pressure(kPa) Air tempC) Relative humidity(%) Dew pointC)
01 October 2014
19:30 WNW 6 Clear 16 102.4 2 50 -8
18:30 WNW 5 Sunny 16 102.3 4 41 -9
17:30 NW 10 gust 15 Sunny 16 102.2 5 34 -10
16:30 NW 12 gust 18 Partly Cloudy 24 102.1 6 31 -10
15:30 NW 11 gust 18 Mainly Sunny 24 102.0 6 31 -10
14:30 NW 10 gust 18 Mainly Sunny 24 102.0 5 32 -10
13:30 NW 12 gust 22 Sunny 24 102.0 5 34 -10
12:30 NW 14 gust 21 Sunny 24 101.9 4 37 -9
11:30 WNW 12 gust 22 Sunny 24 101.9 3 45 -8
10:30 WNW 13 gust 23 Sunny 24 101.9 2 50 -7
9:30 NW 13 gust 20 Mainly Sunny 24 101.8 2 56 -6
8:30 NW 6 gust 16 Partly Cloudy 24 101.7 1 65 -5
7:30 NW 10 gust 20 Sunny 16 101.7 1 64 -6
6:30 NNW 16 gust 26 Mostly Cloudy 16 101.5 2 61 -5
5:30 NNW 13 gust 22 Mostly Cloudy 16 101.4 4 69 -1
4:30 WSW 8 Clear 16 101.2 4 68 -2
3:30 WSW 9 Clear 16 101.2 5 64 -2
2:30 WSW 6 Mainly Clear 16 101.1 4 73 0
1:30 W 5 Partly Cloudy 16 101.1 6 71 1
0:30 W 10 gust 16 Cloudy 16 101.1 7 69 2
30 September 2014
23:30 SW 12 Cloudy 16 101.0 8 70 2
22:30 SW 13 gust 20 Cloudy 16 101.1 7 71 3
21:30 SW 12 gust 21 Cloudy 16 101.1 7 72 3
20:30 SW 15 gust 25 Cloudy 16 101.1 7 71 2
19:30 SW 13 gust 26 Cloudy 16 101.1 7 66 2
 
Map of Atlantic - Newfoundland marine weather areas Southwestern Grand Banks - 44138 Banquereau - 44139 Tail of the Bank - 44140 Nickerson Bank - 44251 Northeast Burgeo Bank - 44255 Blanc-Sablon Airport Cap Whittle Chevery Natashquan Airport Heath Point Miscou Island Grand Étang Ingonish Beach North Mountain St.Paul Island J.A. Douglas McCurdy Sydney Airport Charlottetown Airport East Point North Cape Argentia Bonavista Burgeo Cape Race Corner Brook Daniel's Harbour Englee Ferolle Point La Scie Port aux Basques Rocky Harbour Sagona Island St. Anthony Airport St. John's Int'l Airport St. Lawrence Stephenville Airport Twillingate Winterland Wreckhouse Cartwright Airport Mary's Harbour Grates Cove Pool's Island Marticot Island Long Pond Îles de la Madeleine Airport
Legend: buoyBuoy land stationLand Station